createdAt,value
2019-06-20T00:00:49.918Z,20.60
2019-06-20T00:03:23.377Z,20.60
2019-06-20T00:05:53.717Z,20.70
2019-06-20T00:08:24.776Z,20.70
2019-06-20T00:10:57.352Z,20.80
2019-06-20T00:13:27.487Z,20.60
2019-06-20T00:15:57.555Z,20.60
2019-06-20T00:18:29.722Z,20.40
2019-06-20T00:21:03.126Z,20.30
2019-06-20T00:23:34.257Z,20.30
2019-06-20T00:26:05.372Z,20.30
2019-06-20T00:28:36.433Z,20.30
2019-06-20T00:31:06.426Z,20.30
2019-06-20T00:33:38.148Z,20.40
2019-06-20T00:36:09.251Z,20.40
2019-06-20T00:38:40.775Z,20.30
2019-06-20T00:41:10.928Z,20.30
2019-06-20T00:43:41.921Z,20.20
2019-06-20T00:46:14.488Z,20.20
2019-06-20T00:48:44.478Z,20.20
2019-06-20T00:51:17.626Z,20.20
2019-06-20T00:53:48.570Z,20.20
2019-06-20T00:56:26.364Z,20.20
2019-06-20T00:58:57.651Z,20.30
2019-06-20T01:01:27.595Z,20.20
2019-06-20T01:03:57.697Z,20.10
2019-06-20T01:06:30.084Z,20.10
2019-06-20T01:09:01.361Z,20.10
2019-06-20T01:11:30.767Z,20.10
2019-06-20T01:14:00.792Z,20.00
2019-06-20T01:16:33.293Z,20.00
2019-06-20T01:19:06.770Z,19.90
2019-06-20T01:21:38.211Z,19.80
2019-06-20T01:24:08.787Z,19.80
2019-06-20T01:26:41.074Z,19.80
2019-06-20T01:29:11.248Z,19.80
2019-06-20T01:31:42.219Z,19.90
2019-06-20T01:34:15.560Z,19.90
2019-06-20T01:36:45.704Z,19.90
2019-06-20T01:39:15.690Z,19.80
2019-06-20T01:41:44.963Z,19.80
2019-06-20T01:44:16.210Z,19.80
2019-06-20T01:46:46.286Z,19.90
2019-06-20T01:49:17.263Z,19.90
2019-06-20T01:51:49.695Z,20.00
2019-06-20T01:54:18.993Z,20.00
2019-06-20T01:56:48.378Z,20.00
2019-06-20T01:59:19.681Z,20.00
2019-06-20T02:01:50.781Z,20.00
2019-06-20T02:04:20.748Z,20.00
2019-06-20T02:06:54.217Z,20.10
2019-06-20T02:09:25.667Z,20.10
2019-06-20T02:11:59.265Z,20.10
2019-06-20T02:14:31.779Z,20.00
2019-06-20T02:17:06.652Z,20.00
2019-06-20T02:19:36.873Z,20.00
2019-06-20T02:22:07.738Z,19.90
2019-06-20T02:24:38.824Z,19.90
2019-06-20T02:27:08.890Z,19.90
2019-06-20T02:29:39.925Z,19.80
2019-06-20T02:32:11.163Z,19.60
2019-06-20T02:34:44.563Z,19.40
2019-06-20T02:37:15.655Z,19.20
2019-06-20T02:39:48.991Z,19.10
2019-06-20T02:42:20.132Z,18.90
2019-06-20T02:58:00.085Z,18.70
2019-06-20T03:00:35.832Z,18.80
2019-06-20T03:03:06.082Z,18.80
2019-06-20T03:05:37.212Z,18.90
2019-06-20T03:08:10.002Z,18.90
2019-06-20T03:10:43.466Z,19.00
2019-06-20T03:13:14.934Z,19.00
2019-06-20T03:15:44.303Z,19.10
2019-06-20T03:18:15.754Z,19.10
2019-06-20T03:20:46.998Z,19.10
2019-06-20T03:23:19.800Z,19.20
2019-06-20T03:25:51.209Z,19.20
2019-06-20T03:28:20.586Z,19.20
2019-06-20T03:30:52.092Z,19.20
2019-06-20T03:33:22.187Z,19.20
2019-06-20T03:35:53.284Z,19.30
2019-06-20T03:38:25.082Z,19.30
2019-06-20T03:40:56.315Z,19.30
2019-06-20T03:43:26.379Z,19.20
2019-06-20T03:45:58.892Z,19.10
2019-06-20T03:48:30.103Z,19.00
2019-06-20T03:51:01.150Z,19.00
2019-06-20T03:53:31.048Z,18.90
2019-06-20T03:56:01.030Z,19.00
2019-06-20T03:58:34.504Z,19.00
2019-06-20T04:01:07.912Z,19.10
2019-06-20T04:03:38.901Z,19.10
2019-06-20T04:06:08.897Z,19.20
2019-06-20T04:08:40.195Z,19.30
2019-06-20T04:11:11.108Z,19.40
2019-06-20T04:13:43.714Z,19.50
2019-06-20T04:16:15.063Z,19.50
2019-06-20T04:18:44.532Z,19.60
2019-06-20T04:21:16.167Z,19.80
2019-06-20T04:23:47.312Z,20.00
2019-06-20T04:26:18.462Z,20.20
2019-06-20T04:28:53.627Z,20.40
2019-06-20T04:31:24.815Z,20.60
2019-06-20T04:33:54.184Z,20.90
2019-06-20T04:36:26.618Z,21.10
2019-06-20T04:39:01.144Z,21.30
2019-06-20T04:41:32.905Z,21.40
2019-06-20T04:44:05.402Z,21.80
2019-06-20T04:46:40.194Z,22.10
2019-06-20T04:49:11.509Z,22.30
2019-06-20T04:51:42.689Z,22.40
2019-06-20T04:54:12.826Z,22.60
2019-06-20T04:56:45.186Z,22.80
2019-06-20T04:59:16.241Z,22.80
2019-06-20T05:01:47.308Z,22.90
2019-06-20T05:04:18.611Z,23.00
2019-06-20T05:06:51.525Z,23.00
2019-06-20T05:09:23.994Z,23.00
2019-06-20T05:11:57.339Z,23.10
2019-06-20T05:14:28.743Z,23.10
2019-06-20T05:17:02.094Z,23.10
2019-06-20T05:19:31.925Z,23.00
2019-06-20T05:22:03.323Z,22.90
2019-06-20T05:24:36.858Z,22.90
2019-06-20T05:27:06.908Z,23.00
2019-06-20T05:29:36.752Z,23.10
2019-06-20T05:32:07.959Z,23.10
2019-06-20T05:34:40.492Z,23.10
2019-06-20T05:37:10.430Z,23.00
2019-06-20T05:39:40.668Z,23.00
2019-06-20T05:42:10.639Z,23.10
2019-06-20T05:44:41.869Z,23.20
2019-06-20T05:47:14.120Z,23.30
2019-06-20T05:49:44.180Z,23.20
2019-06-20T05:52:15.431Z,23.20
2019-06-20T05:54:48.696Z,23.20
2019-06-20T05:57:20.106Z,23.20
2019-06-20T05:59:51.532Z,23.20
2019-06-20T06:02:22.168Z,23.10
2019-06-20T06:05:00.138Z,23.20
2019-06-20T06:07:32.604Z,23.20
2019-06-20T06:10:05.607Z,23.20
2019-06-20T06:12:37.500Z,23.10
2019-06-20T06:15:13.753Z,23.10
2019-06-20T06:17:45.266Z,23.20
2019-06-20T06:20:15.766Z,23.20
2019-06-20T06:22:50.651Z,23.30
2019-06-20T06:25:22.272Z,23.30
2019-06-20T06:27:53.725Z,23.40
2019-06-20T06:30:23.710Z,23.40
2019-06-20T06:32:55.486Z,23.50
2019-06-20T06:35:26.510Z,23.50
2019-06-20T06:37:59.939Z,23.60
2019-06-20T06:40:31.409Z,23.70
2019-06-20T06:43:04.444Z,23.70
2019-06-20T06:45:39.794Z,23.60
2019-06-20T06:48:14.456Z,23.70
2019-06-20T06:50:47.355Z,23.70
2019-06-20T06:53:21.851Z,23.80
2019-06-20T06:55:56.761Z,23.80
2019-06-20T06:58:27.331Z,23.80
2019-06-20T07:00:58.161Z,23.80
2019-06-20T07:03:30.022Z,23.90
2019-06-20T07:06:00.668Z,24.00
2019-06-20T07:08:32.671Z,24.00
2019-06-20T07:11:05.321Z,24.00
2019-06-20T07:13:36.410Z,24.00
2019-06-20T07:16:07.092Z,24.10
2019-06-20T07:18:38.411Z,24.10
2019-06-20T07:21:11.731Z,24.00
2019-06-20T07:26:18.528Z,24.10
2019-06-20T07:28:51.440Z,24.20
2019-06-20T07:47:18.171Z,24.50
2019-06-20T07:49:47.391Z,24.60
2019-06-20T07:52:19.902Z,24.60
2019-06-20T07:54:51.931Z,24.70
2019-06-20T07:57:23.223Z,24.70
2019-06-20T08:02:38.781Z,24.70
2019-06-20T08:05:09.371Z,24.70
2019-06-20T08:07:39.279Z,24.70
2019-06-20T08:10:13.006Z,24.80
2019-06-20T08:12:43.407Z,24.80
2019-06-20T08:15:16.522Z,24.80
2019-06-20T08:17:51.633Z,24.90
2019-06-20T08:20:22.201Z,24.90
2019-06-20T08:22:52.942Z,24.90
2019-06-20T08:25:24.789Z,24.90
2019-06-20T08:28:02.500Z,24.90
2019-06-20T08:30:36.458Z,24.90
2019-06-20T08:33:12.221Z,25.00
2019-06-20T08:35:45.575Z,25.10
2019-06-20T08:38:16.865Z,25.20
2019-06-20T08:40:47.482Z,25.20
2019-06-20T08:54:19.422Z,25.00
2019-06-20T08:56:49.445Z,25.10
2019-06-20T08:59:24.359Z,25.00
2019-06-20T09:01:55.996Z,25.10
2019-06-20T09:04:27.633Z,25.20
2019-06-20T09:09:37.971Z,25.70
2019-06-20T09:12:09.590Z,25.90
2019-06-20T09:14:41.185Z,26.10
2019-06-20T09:17:17.028Z,26.40
2019-06-20T09:19:51.743Z,26.60
2019-06-20T09:22:23.088Z,27.00
2019-06-20T09:24:53.673Z,27.30
2019-06-20T09:27:25.162Z,27.60
2019-06-20T09:29:56.204Z,27.60
2019-06-20T09:32:26.394Z,27.80
2019-06-20T09:34:58.667Z,28.00
2019-06-20T09:37:33.466Z,28.30
2019-06-20T09:40:06.461Z,28.40
2019-06-20T10:31:03.159Z,30.90
2019-06-20T10:33:34.369Z,31.00
2019-06-20T10:36:05.829Z,31.00
2019-06-20T10:38:35.808Z,31.20
2019-06-20T10:41:07.763Z,31.50
2019-06-20T10:43:37.980Z,31.80
2019-06-20T10:46:09.445Z,31.80
2019-06-20T10:48:42.520Z,31.90
2019-06-20T10:51:31.446Z,31.90
2019-06-20T10:54:02.650Z,32.10
2019-06-20T10:56:32.786Z,32.40
2019-06-20T10:59:05.283Z,32.60
2019-06-20T11:01:36.489Z,32.80
2019-06-20T11:04:09.603Z,33.00
2019-06-20T11:06:40.042Z,33.30
2019-06-20T11:09:14.140Z,33.40
2019-06-20T11:11:44.769Z,33.20
2019-06-20T11:14:15.980Z,33.50
2019-06-20T11:16:47.202Z,33.60
2019-06-20T11:19:18.454Z,33.60
2019-06-20T11:21:48.683Z,33.40
2019-06-20T11:24:19.722Z,33.50
2019-06-20T11:26:50.749Z,33.70
2019-06-20T11:29:21.997Z,33.80
2019-06-20T11:31:52.493Z,34.10
2019-06-20T11:34:24.892Z,34.50
2019-06-20T11:36:58.133Z,34.80
2019-06-20T11:39:29.415Z,35.20
2019-06-20T11:42:03.128Z,35.10
2019-06-20T11:44:35.326Z,34.90
2019-06-20T11:47:07.688Z,34.60
2019-06-20T11:49:40.900Z,34.90
2019-06-20T11:52:13.622Z,35.00
2019-06-20T11:54:45.022Z,34.90
2019-06-20T11:57:18.439Z,34.40
2019-06-20T11:59:52.121Z,33.90
2019-06-20T12:02:23.398Z,33.70
2019-06-20T12:04:55.773Z,33.40
2019-06-20T12:07:28.809Z,33.20
2019-06-20T12:10:00.330Z,33.20
2019-06-20T12:12:32.716Z,33.30
2019-06-20T12:15:07.107Z,33.10
2019-06-20T12:17:39.832Z,32.90
2019-06-20T12:20:11.838Z,32.70
2019-06-20T12:22:43.593Z,32.70
2019-06-20T12:25:16.379Z,32.60
2019-06-20T12:27:47.836Z,32.60
2019-06-20T12:30:21.318Z,32.60
2019-06-20T12:32:53.813Z,32.80
2019-06-20T12:35:24.924Z,32.80
2019-06-20T12:37:55.221Z,33.00
2019-06-20T12:40:25.467Z,33.00
2019-06-20T12:42:55.575Z,33.10
2019-06-20T12:45:32.119Z,32.90
2019-06-20T12:48:03.570Z,32.60
2019-06-20T12:50:33.625Z,32.50
2019-06-20T12:53:05.278Z,32.40
2019-06-20T12:55:37.266Z,32.20
2019-06-20T12:58:09.661Z,32.40
2019-06-20T13:00:43.637Z,32.60
2019-06-20T13:03:16.573Z,32.70
2019-06-20T13:05:49.021Z,32.60
2019-06-20T13:08:20.451Z,32.40
2019-06-20T13:10:53.719Z,32.30
2019-06-20T13:13:25.467Z,32.30
2019-06-20T13:15:56.723Z,32.40
2019-06-20T13:18:29.398Z,32.60
2019-06-20T13:21:04.076Z,32.70
2019-06-20T13:23:36.461Z,32.80
2019-06-20T13:26:08.006Z,33.00
2019-06-20T13:31:29.926Z,33.20
2019-06-20T13:34:02.449Z,33.20
2019-06-20T13:36:33.596Z,33.20
2019-06-20T13:39:04.010Z,33.10
2019-06-20T13:41:35.689Z,33.00
2019-06-20T13:44:08.499Z,32.90
2019-06-20T13:46:40.031Z,32.50
2019-06-20T13:49:10.863Z,32.20
2019-06-20T13:51:41.942Z,32.20
2019-06-20T13:54:11.903Z,32.30
2019-06-20T13:56:43.631Z,32.30
2019-06-20T13:59:17.779Z,32.30
2019-06-20T14:01:49.466Z,32.30
2019-06-20T14:04:20.556Z,32.20
2019-06-20T14:06:51.513Z,32.00
2019-06-20T14:09:24.083Z,31.70
2019-06-20T14:11:55.043Z,31.50
2019-06-20T14:14:25.336Z,31.20
2019-06-20T14:16:55.573Z,31.10
2019-06-20T14:19:28.413Z,31.00
2019-06-20T14:21:58.986Z,31.00
2019-06-20T14:24:30.324Z,31.10
2019-06-20T14:27:02.390Z,31.20
2019-06-20T14:29:33.769Z,31.40
2019-06-20T14:32:04.809Z,31.50
2019-06-20T14:34:37.273Z,31.70
2019-06-20T14:37:10.819Z,31.90
2019-06-20T14:39:45.940Z,31.90
2019-06-20T14:42:18.657Z,31.90
2019-06-20T14:44:49.786Z,31.80
2019-06-20T14:47:24.342Z,31.50
2019-06-20T14:49:54.604Z,31.10
2019-06-20T14:52:27.656Z,30.80
2019-06-20T14:54:57.796Z,30.60
2019-06-20T14:57:30.231Z,30.50
2019-06-20T15:00:02.646Z,30.50
2019-06-20T15:02:38.743Z,30.60
2019-06-20T15:05:20.231Z,30.60
2019-06-20T15:07:52.105Z,30.60
2019-06-20T15:10:23.466Z,30.50
2019-06-20T15:12:55.947Z,30.40
2019-06-20T15:15:26.825Z,30.30
2019-06-20T15:18:01.731Z,30.20
2019-06-20T15:20:32.754Z,30.10
2019-06-20T15:23:02.941Z,30.00
2019-06-20T15:25:34.151Z,29.90
2019-06-20T15:28:10.497Z,29.70
2019-06-20T15:30:41.593Z,29.40
2019-06-20T15:33:13.930Z,29.20
2019-06-20T15:35:45.095Z,29.10
2019-06-20T15:38:15.079Z,28.90
2019-06-20T15:40:49.751Z,28.70
2019-06-20T15:43:20.137Z,28.40
2019-06-20T15:45:50.736Z,28.10
2019-06-20T15:48:24.524Z,28.00
2019-06-20T15:50:55.683Z,27.70
2019-06-20T15:53:27.088Z,26.80
2019-06-20T15:56:01.341Z,26.10
2019-06-20T15:58:31.385Z,25.70
2019-06-20T16:01:02.766Z,25.40
2019-06-20T16:03:33.766Z,25.20
2019-06-20T16:06:07.110Z,25.00
2019-06-20T16:08:38.092Z,24.80
2019-06-20T16:11:09.110Z,24.50
2019-06-20T16:13:40.343Z,24.20
2019-06-20T16:16:11.556Z,24.10
2019-06-20T16:18:42.576Z,23.90
2019-06-20T16:21:13.618Z,23.70
2019-06-20T16:23:48.779Z,23.60
2019-06-20T16:26:18.768Z,23.40
2019-06-20T16:28:50.162Z,23.20
2019-06-20T16:31:26.878Z,23.10
2019-06-20T16:33:54.900Z,23.00
2019-06-20T16:36:24.826Z,23.00
2019-06-20T16:38:55.242Z,22.90
2019-06-20T17:36:17.727Z,21.90
2019-06-20T17:38:39.748Z,21.80
2019-06-20T17:41:09.744Z,21.90
2019-06-20T17:43:39.800Z,22.00
2019-06-20T17:46:12.132Z,22.10
2019-06-20T17:48:43.301Z,22.30
2019-06-20T17:51:18.295Z,22.40
2019-06-20T17:53:49.811Z,22.50
2019-06-20T17:56:19.843Z,22.60
2019-06-20T17:58:53.556Z,22.70
2019-06-20T18:01:25.324Z,22.70
2019-06-20T18:03:56.538Z,22.80
2019-06-20T18:06:27.876Z,22.80
2019-06-20T18:09:01.208Z,22.80
2019-06-20T18:11:33.507Z,22.70
2019-06-20T18:14:05.914Z,22.70
2019-06-20T18:16:35.928Z,22.50
2019-06-20T18:19:06.987Z,22.50
2019-06-20T18:21:39.720Z,22.50
2019-06-20T18:24:09.014Z,22.30
2019-06-20T18:26:42.035Z,22.30
2019-06-20T18:29:15.153Z,22.30
2019-06-20T18:31:46.679Z,22.20
2019-06-20T18:34:29.579Z,22.30
2019-06-20T18:36:52.716Z,22.30
2019-06-20T18:39:25.092Z,22.30
2019-06-20T18:41:56.885Z,22.30
2019-06-20T18:44:28.787Z,22.30
2019-06-20T18:47:00.561Z,22.40
2019-06-20T18:49:32.083Z,22.40
2019-06-20T18:52:04.784Z,22.40
2019-06-20T18:54:35.785Z,22.30
2019-06-20T18:57:08.685Z,22.30
2019-06-20T18:59:42.685Z,22.20
2019-06-20T19:02:12.735Z,22.10
2019-06-20T19:04:49.631Z,22.10
2019-06-20T19:07:15.648Z,22.10
2019-06-20T19:09:45.607Z,22.00
2019-06-20T19:12:16.302Z,22.00
2019-06-20T19:14:49.637Z,22.00
2019-06-20T19:17:24.889Z,22.00
2019-06-20T19:19:57.097Z,22.00
2019-06-20T19:22:28.285Z,22.00
2019-06-20T19:24:58.999Z,22.00
2019-06-20T19:27:44.740Z,21.90
2019-06-20T19:30:04.225Z,21.80
2019-06-20T19:32:36.673Z,21.80
2019-06-20T19:35:11.253Z,21.80
2019-06-20T19:37:45.988Z,21.80
2019-06-20T19:40:17.822Z,21.80
2019-06-20T19:42:48.027Z,21.80
2019-06-20T19:45:19.256Z,21.80
2019-06-20T19:47:50.288Z,21.80
2019-06-20T19:50:21.744Z,21.80
2019-06-20T19:52:55.578Z,21.90
2019-06-20T19:55:27.660Z,21.80
2019-06-20T19:57:57.751Z,21.70
2019-06-20T20:00:28.745Z,21.60
2019-06-20T20:03:00.183Z,21.40
2019-06-20T20:05:31.310Z,21.30
2019-06-20T20:08:02.566Z,21.10
2019-06-20T20:10:53.033Z,20.90
2019-06-20T20:13:24.032Z,20.80
2019-06-20T20:15:55.218Z,20.80
2019-06-20T20:18:29.211Z,20.80
2019-06-20T20:21:00.219Z,20.80
2019-06-20T20:23:29.517Z,20.70
2019-06-20T20:26:00.722Z,20.60
2019-06-20T20:28:34.022Z,20.50
2019-06-20T20:31:05.138Z,20.40
2019-06-20T20:33:36.049Z,20.40
2019-06-20T20:36:23.768Z,20.40
2019-06-20T20:38:43.544Z,20.40
2019-06-20T20:41:14.659Z,20.30
2019-06-20T20:43:44.729Z,20.20
2019-06-20T20:46:17.365Z,20.20
2019-06-20T20:48:48.699Z,20.20
2019-06-20T20:51:22.010Z,20.20
2019-06-20T20:53:52.316Z,20.20
2019-06-20T20:56:22.418Z,20.20
2019-06-20T20:58:53.693Z,20.30
2019-06-20T21:01:29.336Z,20.30
2019-06-20T21:04:03.081Z,20.40
2019-06-20T21:06:36.177Z,20.40
2019-06-20T21:09:09.187Z,20.40
2019-06-20T21:11:39.121Z,20.40
2019-06-20T21:14:09.186Z,20.30
2019-06-20T21:16:39.121Z,20.30
2019-06-20T21:19:10.134Z,20.30
2019-06-20T23:00:27.025Z,19.80
2019-06-20T23:03:00.381Z,19.70
2019-06-20T23:05:31.478Z,19.60
2019-06-20T23:08:06.299Z,19.60
2019-06-20T23:10:37.237Z,19.60
2019-06-20T23:13:08.273Z,19.60
2019-06-20T23:15:39.282Z,19.60
2019-06-20T23:18:10.412Z,19.50
2019-06-20T23:20:41.682Z,19.50
2019-06-20T23:23:11.733Z,19.40
2019-06-20T23:25:44.523Z,19.50
2019-06-20T23:38:39.381Z,19.20
2019-06-20T23:41:08.751Z,19.10
2019-06-20T23:43:48.295Z,19.10
2019-06-20T23:46:20.716Z,19.00
2019-06-20T23:48:50.813Z,19.10
2019-06-20T23:51:25.540Z,19.00
2019-06-20T23:53:53.959Z,19.00
2019-06-20T23:56:25.070Z,18.90
2019-06-20T23:58:57.805Z,18.90
